Time;durP1;ratioP1;P1;durP2;ratioP2;P2;SDS_P1;SDS_P2;PMS_P1;PMS_P2;Temp;Humidity;BMP_temperature;BMP_pressure;BME280_temperature;BME280_humidity;BME280_pressure;Samples;Min_cycle;Max_cycle;Signal;HPM_P1;HPM_P2
2022/04/11 00:00:10;;;;;;;13.27;9.17;;;;;;;;;;2098739;28;20667;-55
2022/04/11 00:01:11;;;;;;;10.97;9.17;;;;;;;;;;2095251;28;20263;-53
2022/04/11 00:02:11;;;;;;;10.90;9.07;;;;;;;;;;2098875;28;20183;-56
2022/04/11 00:03:11;;;;;;;10.80;9.73;;;;;;;;;;2084484;28;20235;-55
2022/04/11 00:04:11;;;;;;;13.47;9.60;;;;;;;;;;2086451;28;20803;-53
2022/04/11 00:05:12;;;;;;;11.60;10.00;;;;;;;;;;2092473;28;20176;-53
2022/04/11 00:06:12;;;;;;;11.77;9.47;;;;;;;;;;2095317;28;20258;-55
2022/04/11 00:07:12;;;;;;;10.77;9.17;;;;;;;;;;2095718;28;20182;-56
2022/04/11 00:08:12;;;;;;;11.23;9.60;;;;;;;;;;2095546;28;20201;-54
2022/04/11 00:09:13;;;;;;;12.17;9.40;;;;;;;;;;2093622;28;20191;-56
2022/04/11 00:10:13;;;;;;;10.33;9.40;;;;;;;;;;2090836;28;20175;-55
2022/04/11 00:11:13;;;;;;;13.73;9.10;;;;;;;;;;2092359;28;20201;-55
2022/04/11 00:12:14;;;;;;;11.97;9.70;;;;;;;;;;2089011;28;20195;-53
2022/04/11 00:13:14;;;;;;;11.47;10.07;;;;;;;;;;2089742;28;20199;-53
2022/04/11 00:14:14;;;;;;;11.73;9.60;;;;;;;;;;2092027;28;20256;-53
2022/04/11 00:15:15;;;;;;;12.77;10.33;;;;;;;;;;2091887;28;20545;-55
2022/04/11 00:16:15;;;;;;;11.63;9.97;;;;;;;;;;2090151;28;20564;-54
2022/04/11 00:17:15;;;;;;;11.80;9.23;;;;;;;;;;2092716;28;20193;-55
2022/04/11 00:18:15;;;;;;;15.00;10.27;;;;;;;;;;2095196;28;20197;-56
2022/04/11 00:19:16;;;;;;;12.27;10.60;;;;;;;;;;2098275;28;20209;-53
2022/04/11 00:20:16;;;;;;;11.87;10.50;;;;;;;;;;2096675;28;20246;-57
2022/04/11 00:21:16;;;;;;;11.50;10.03;;;;;;;;;;2089929;28;20202;-54
2022/04/11 00:22:16;;;;;;;12.43;10.87;;;;;;;;;;2080622;28;20196;-53
2022/04/11 00:23:16;;;;;;;12.40;11.10;;;;;;;;;;2088961;28;20187;-55
2022/04/11 00:24:17;;;;;;;11.83;10.73;;;;;;;;;;2095210;28;20175;-56
2022/04/11 00:25:17;;;;;;;13.70;10.00;;;;;;;;;;2087824;28;20616;-52
2022/04/11 00:26:17;;;;;;;13.20;10.50;;;;;;;;;;2081096;28;20191;-52
2022/04/11 00:27:19;;;;;;;11.53;10.33;;;;;;;;;;2086405;28;20176;-54
2022/04/11 00:28:20;;;;;;;14.43;10.67;;;;;;;;;;2089964;28;20448;-54
2022/04/11 00:29:20;;;;;;;11.67;9.97;;;;;;;;;;2093270;28;20168;-55
2022/04/11 00:30:21;;;;;;;13.20;11.30;;;;;;;;;;2089489;28;20199;-56
2022/04/11 00:31:22;;;;;;;12.40;10.93;;;;;;;;;;2083270;28;20210;-55
2022/04/11 00:32:23;;;;;;;12.43;10.90;;;;;;;;;;2096113;28;20244;-52
2022/04/11 00:33:23;;;;;;;12.97;10.63;;;;;;;;;;2089437;28;20245;-52
2022/04/11 00:34:24;;;;;;;12.43;10.50;;;;;;;;;;2080523;28;20790;-54
2022/04/11 00:35:24;;;;;;;11.87;10.63;;;;;;;;;;2089998;28;20172;-52
2022/04/11 00:36:24;;;;;;;16.03;10.77;;;;;;;;;;2090006;28;20224;-53
2022/04/11 00:37:24;;;;;;;15.20;11.07;;;;;;;;;;2090099;28;20254;-53
2022/04/11 00:38:24;;;;;;;11.03;10.00;;;;;;;;;;2098933;28;20175;-54
2022/04/11 00:39:25;;;;;;;11.30;10.13;;;;;;;;;;2089901;28;20683;-52
2022/04/11 00:40:25;;;;;;;10.80;9.70;;;;;;;;;;2090172;28;20636;-54
2022/04/11 00:41:26;;;;;;;15.70;11.07;;;;;;;;;;2089533;28;20167;-53
2022/04/11 00:42:27;;;;;;;14.90;10.30;;;;;;;;;;2081471;28;20607;-55
2022/04/11 00:43:33;;;;;;;16.27;10.60;;;;;;;;;;2081706;28;20181;-55
2022/04/11 00:44:34;;;;;;;11.27;9.93;;;;;;;;;;2088766;28;20175;-56
2022/04/11 00:45:34;;;;;;;11.03;9.77;;;;;;;;;;2090069;28;20186;-53
2022/04/11 00:46:35;;;;;;;15.33;9.97;;;;;;;;;;2096231;28;20172;-55
2022/04/11 00:47:35;;;;;;;10.67;9.60;;;;;;;;;;2086123;28;20452;-53
2022/04/11 00:48:36;;;;;;;14.17;10.93;;;;;;;;;;2081852;28;20177;-55
2022/04/11 00:49:36;;;;;;;15.80;12.83;;;;;;;;;;2087268;28;20171;-54
2022/04/11 00:50:37;;;;;;;15.47;11.67;;;;;;;;;;2090644;28;20187;-54
2022/04/11 00:51:39;;;;;;;13.80;10.97;;;;;;;;;;2077668;28;20694;-52
2022/04/11 00:52:44;;;;;;;13.60;10.37;;;;;;;;;;2082224;28;20200;-53
2022/04/11 00:53:45;;;;;;;12.87;10.60;;;;;;;;;;2098445;28;20723;-54
2022/04/11 00:54:46;;;;;;;12.67;11.40;;;;;;;;;;2089406;28;20752;-52
2022/04/11 00:55:46;;;;;;;13.17;10.97;;;;;;;;;;2089580;28;20190;-54
2022/04/11 00:56:47;;;;;;;12.90;9.87;;;;;;;;;;2090202;28;20594;-57
2022/04/11 00:57:47;;;;;;;13.27;10.97;;;;;;;;;;2086905;28;20475;-53
2022/04/11 00:58:48;;;;;;;12.83;10.50;;;;;;;;;;2081353;28;20168;-55
2022/04/11 00:59:49;;;;;;;11.13;10.10;;;;;;;;;;2072636;28;20200;-53
2022/04/11 01:00:50;;;;;;;13.80;10.07;;;;;;;;;;2078697;28;20960;-53
2022/04/11 01:01:50;;;;;;;12.77;9.80;;;;;;;;;;2078360;28;20172;-55
2022/04/11 01:02:51;;;;;;;14.90;10.67;;;;;;;;;;2087640;28;20691;-54
2022/04/11 01:03:51;;;;;;;15.07;10.53;;;;;;;;;;2079092;28;20164;-51
2022/04/11 01:04:52;;;;;;;12.27;10.47;;;;;;;;;;2086045;28;20172;-54
2022/04/11 01:05:52;;;;;;;12.93;10.43;;;;;;;;;;2089160;28;20652;-55
2022/04/11 01:06:54;;;;;;;15.87;10.80;;;;;;;;;;2076522;28;20172;-54
2022/04/11 01:08:04;;;;;;;14.73;11.07;;;;;;;;;;2086493;28;20188;-53
2022/04/11 01:09:05;;;;;;;13.33;9.87;;;;;;;;;;2086360;28;20495;-57
2022/04/11 01:10:06;;;;;;;12.03;10.80;;;;;;;;;;2084862;28;20957;-54
2022/04/11 01:11:07;;;;;;;14.80;11.03;;;;;;;;;;2079270;28;20218;-52
2022/04/11 01:12:07;;;;;;;12.80;11.17;;;;;;;;;;2080853;28;20950;-53
2022/04/11 01:13:08;;;;;;;13.20;11.40;;;;;;;;;;2075870;28;20227;-54
2022/04/11 01:14:08;;;;;;;12.30;10.97;;;;;;;;;;2087474;28;20175;-53
2022/04/11 01:15:09;;;;;;;14.13;11.47;;;;;;;;;;2093067;28;20648;-54
2022/04/11 01:16:09;;;;;;;12.87;10.80;;;;;;;;;;2085141;28;20164;-55
2022/04/11 01:17:10;;;;;;;14.80;10.13;;;;;;;;;;2077428;28;20184;-55
2022/04/11 01:18:10;;;;;;;16.87;11.73;;;;;;;;;;2081640;28;20168;-55
2022/04/11 01:19:10;;;;;;;12.27;10.27;;;;;;;;;;2088694;28;20548;-53
2022/04/11 01:20:12;;;;;;;12.37;10.10;;;;;;;;;;2088137;28;20246;-53
2022/04/11 01:21:13;;;;;;;12.67;10.03;;;;;;;;;;2088987;28;20262;-55
2022/04/11 01:22:13;;;;;;;11.17;9.80;;;;;;;;;;2088259;28;20294;-53
2022/04/11 01:23:14;;;;;;;11.33;10.33;;;;;;;;;;2075330;28;20402;-56
2022/04/11 01:24:17;;;;;;;12.10;10.13;;;;;;;;;;2083594;28;20180;-51
2022/04/11 01:25:18;;;;;;;11.50;10.10;;;;;;;;;;2093256;28;20831;-56
2022/04/11 01:26:22;;;;;;;10.57;9.50;;;;;;;;;;2091339;28;20175;-56
2022/04/11 01:27:22;;;;;;;11.53;9.17;;;;;;;;;;2088044;28;20428;-54
2022/04/11 01:28:22;;;;;;;11.00;9.93;;;;;;;;;;2089077;28;20214;-54
2022/04/11 01:29:23;;;;;;;10.90;9.23;;;;;;;;;;2079787;28;20184;-53
2022/04/11 01:30:24;;;;;;;12.97;9.60;;;;;;;;;;2079084;28;20258;-54
2022/04/11 01:31:25;;;;;;;10.23;8.93;;;;;;;;;;2080042;28;20613;-56
2022/04/11 01:32:26;;;;;;;15.30;9.80;;;;;;;;;;2081136;28;20216;-55
2022/04/11 01:33:28;;;;;;;13.50;10.40;;;;;;;;;;2077243;28;20529;-56
2022/04/11 01:34:30;;;;;;;13.60;10.60;;;;;;;;;;2089266;28;20187;-53
2022/04/11 01:35:31;;;;;;;14.67;10.30;;;;;;;;;;2088893;28;20187;-55
2022/04/11 01:36:37;;;;;;;11.40;9.87;;;;;;;;;;2073828;28;20172;-55
2022/04/11 01:37:40;;;;;;;12.90;10.93;;;;;;;;;;2079830;28;20484;-55
2022/04/11 01:38:40;;;;;;;11.27;10.07;;;;;;;;;;2072801;28;20203;-56
2022/04/11 01:39:41;;;;;;;11.57;9.93;;;;;;;;;;2080558;28;20184;-52
2022/04/11 01:40:51;;;;;;;12.87;10.33;;;;;;;;;;2085243;28;20163;-55
2022/04/11 01:41:51;;;;;;;11.17;10.07;;;;;;;;;;2090887;28;20175;-55
2022/04/11 01:42:52;;;;;;;12.10;10.10;;;;;;;;;;2088627;28;20195;-55
2022/04/11 01:43:52;;;;;;;15.63;10.67;;;;;;;;;;2080336;28;20177;-51
2022/04/11 01:44:52;;;;;;;13.10;10.17;;;;;;;;;;2086843;28;20182;-54
2022/04/11 01:45:53;;;;;;;15.07;10.60;;;;;;;;;;2080893;28;20210;-52
2022/04/11 01:47:04;;;;;;;15.17;10.50;;;;;;;;;;2080421;28;20226;-53
2022/04/11 01:48:04;;;;;;;14.47;10.90;;;;;;;;;;2077175;28;20255;-52
2022/04/11 01:49:05;;;;;;;12.43;10.57;;;;;;;;;;2076467;28;20183;-52
2022/04/11 01:50:06;;;;;;;12.10;10.73;;;;;;;;;;2086943;28;20198;-55
2022/04/11 01:51:07;;;;;;;12.17;10.40;;;;;;;;;;2088125;28;20582;-55
2022/04/11 01:52:07;;;;;;;11.27;10.17;;;;;;;;;;2084754;28;20195;-52
2022/04/11 01:53:12;;;;;;;14.37;11.10;;;;;;;;;;2085956;28;20195;-55
2022/04/11 01:54:14;;;;;;;12.70;11.00;;;;;;;;;;2080686;28;20255;-52
2022/04/11 01:55:14;;;;;;;12.57;10.77;;;;;;;;;;2080387;28;20187;-56
2022/04/11 01:56:15;;;;;;;15.43;10.50;;;;;;;;;;2083458;28;20185;-52
2022/04/11 01:57:15;;;;;;;15.07;10.93;;;;;;;;;;2086298;28;20179;-55
2022/04/11 01:58:15;;;;;;;13.83;10.47;;;;;;;;;;2080222;28;20172;-57
2022/04/11 01:59:16;;;;;;;11.53;10.37;;;;;;;;;;2080042;28;20173;-53
2022/04/11 02:00:17;;;;;;;12.80;10.87;;;;;;;;;;2075155;28;20169;-55
2022/04/11 02:01:19;;;;;;;14.50;11.97;;;;;;;;;;2078908;28;20172;-53
2022/04/11 02:02:20;;;;;;;13.10;11.33;;;;;;;;;;2081961;28;20427;-54
2022/04/11 02:03:20;;;;;;;16.67;11.43;;;;;;;;;;2081103;28;20231;-55
2022/04/11 02:04:20;;;;;;;12.63;11.17;;;;;;;;;;2076688;28;20578;-55
2022/04/11 02:05:21;;;;;;;15.63;11.07;;;;;;;;;;2088868;28;20199;-53
2022/04/11 02:06:22;;;;;;;13.27;10.97;;;;;;;;;;2087899;28;20688;-53
2022/04/11 02:07:22;;;;;;;13.93;11.63;;;;;;;;;;2080125;28;20183;-55
2022/04/11 02:08:23;;;;;;;13.10;11.73;;;;;;;;;;2088433;28;20187;-54
2022/04/11 02:09:27;;;;;;;15.43;11.57;;;;;;;;;;2087862;28;20171;-55
2022/04/11 02:10:27;;;;;;;12.60;11.30;;;;;;;;;;2086151;28;20171;-52
2022/04/11 02:11:28;;;;;;;14.17;11.80;;;;;;;;;;2089105;28;20175;-53
2022/04/11 02:12:28;;;;;;;13.07;11.63;;;;;;;;;;2078373;28;20203;-52
2022/04/11 02:13:28;;;;;;;13.13;11.03;;;;;;;;;;2088720;28;20283;-53
2022/04/11 02:14:28;;;;;;;15.47;11.97;;;;;;;;;;2086431;28;20270;-54
2022/04/11 02:15:29;;;;;;;14.40;11.30;;;;;;;;;;2081826;28;20169;-54
2022/04/11 02:16:29;;;;;;;13.20;10.97;;;;;;;;;;2087370;28;20190;-52
2022/04/11 02:17:29;;;;;;;16.67;11.70;;;;;;;;;;2081341;28;20182;-54
2022/04/11 02:18:30;;;;;;;12.87;11.17;;;;;;;;;;2080607;28;20196;-52
2022/04/11 02:19:30;;;;;;;16.80;11.57;;;;;;;;;;2087907;28;20180;-53
2022/04/11 02:20:30;;;;;;;12.03;10.83;;;;;;;;;;2088507;28;20219;-56
2022/04/11 02:21:31;;;;;;;12.93;11.50;;;;;;;;;;2089675;28;20203;-56
2022/04/11 02:22:49;;;;;;;13.57;11.47;;;;;;;;;;2091243;28;20254;-54
2022/04/11 02:23:49;;;;;;;12.13;10.90;;;;;;;;;;2087194;28;22869;-57
2022/04/11 02:24:50;;;;;;;13.73;12.17;;;;;;;;;;2092514;28;20441;-56
2022/04/11 02:25:50;;;;;;;12.77;10.63;;;;;;;;;;2098593;28;20243;-56
2022/04/11 02:26:50;;;;;;;12.93;11.60;;;;;;;;;;2091036;28;20182;-56
2022/04/11 02:27:54;;;;;;;11.83;10.63;;;;;;;;;;2088490;28;20270;-55
2022/04/11 02:28:54;;;;;;;15.37;12.20;;;;;;;;;;2077724;28;20579;-55
2022/04/11 02:29:55;;;;;;;14.00;11.67;;;;;;;;;;2091247;28;20160;-58
2022/04/11 02:30:56;;;;;;;17.30;12.10;;;;;;;;;;2082198;28;20225;-57
2022/04/11 02:33:11;;;;;;;27.13;12.17;;;;;;;;;;2065598;28;20316;-62
2022/04/11 02:34:12;;;;;;;14.60;11.83;;;;;;;;;;2065707;28;20178;-63
2022/04/11 02:35:12;;;;;;;13.90;11.27;;;;;;;;;;2058645;28;20184;-59
2022/04/11 02:36:13;;;;;;;15.83;11.43;;;;;;;;;;2058151;28;20208;-60
2022/04/11 02:37:14;;;;;;;15.20;12.33;;;;;;;;;;2058146;28;20436;-58
2022/04/11 02:38:14;;;;;;;14.80;11.53;;;;;;;;;;2057155;28;20186;-60
2022/04/11 02:39:16;;;;;;;12.37;10.47;;;;;;;;;;2063723;28;20258;-61
2022/04/11 02:40:16;;;;;;;14.37;11.10;;;;;;;;;;2064405;28;20228;-61
2022/04/11 02:41:28;;;;;;;11.47;10.20;;;;;;;;;;2057259;28;20181;-59
2022/04/11 02:42:29;;;;;;;14.77;10.57;;;;;;;;;;2066673;28;20434;-56
2022/04/11 02:43:36;;;;;;;11.80;10.63;;;;;;;;;;2066420;28;20716;-58
2022/04/11 02:44:41;;;;;;;12.77;11.33;;;;;;;;;;2064144;28;20177;-55
2022/04/11 02:45:41;;;;;;;13.23;11.83;;;;;;;;;;2067304;28;20209;-55
2022/04/11 02:46:44;;;;;;;12.87;11.13;;;;;;;;;;2068027;28;20263;-55
2022/04/11 02:47:44;;;;;;;14.67;10.53;;;;;;;;;;2063670;28;20403;-57
2022/04/11 02:48:47;;;;;;;13.13;11.77;;;;;;;;;;2063946;28;20446;-58
2022/04/11 02:49:54;;;;;;;15.87;11.93;;;;;;;;;;2064250;28;20273;-54
2022/04/11 02:51:08;;;;;;;13.20;11.80;;;;;;;;;;2060655;28;20443;-57
2022/04/11 02:52:16;;;;;;;13.13;11.77;;;;;;;;;;2061845;28;20268;-58
2022/04/11 02:53:17;;;;;;;14.73;11.97;;;;;;;;;;2070982;28;21037;-57
2022/04/11 02:54:17;;;;;;;15.80;12.30;;;;;;;;;;2063218;28;20705;-59
2022/04/11 02:55:21;;;;;;;13.27;11.87;;;;;;;;;;2062716;28;20559;-59
2022/04/11 02:56:21;;;;;;;14.60;13.20;;;;;;;;;;2055807;28;20220;-60
2022/04/11 02:57:22;;;;;;;16.60;12.33;;;;;;;;;;2055594;28;21007;-58
2022/04/11 02:58:23;;;;;;;17.60;14.37;;;;;;;;;;2062568;28;20208;-61
2022/04/11 02:59:23;;;;;;;17.80;13.63;;;;;;;;;;2071907;28;20452;-54
2022/04/11 03:00:28;;;;;;;14.17;12.70;;;;;;;;;;2065343;28;20188;-58
2022/04/11 03:01:31;;;;;;;15.60;13.93;;;;;;;;;;2064123;28;20174;-56
2022/04/11 03:02:32;;;;;;;14.93;13.23;;;;;;;;;;2064841;28;20251;-60
2022/04/11 03:03:33;;;;;;;16.60;14.47;;;;;;;;;;2063986;28;21135;-59
2022/04/11 03:04:34;;;;;;;15.03;13.50;;;;;;;;;;2072510;28;20173;-60
2022/04/11 03:05:42;;;;;;;18.90;14.53;;;;;;;;;;2081772;28;20157;-59
2022/04/11 03:06:44;;;;;;;14.43;12.93;;;;;;;;;;2081503;28;20164;-58
2022/04/11 03:07:44;;;;;;;16.97;14.10;;;;;;;;;;2073072;28;20176;-55
2022/04/11 03:08:45;;;;;;;17.40;13.43;;;;;;;;;;2066303;28;20646;-56
2022/04/11 03:09:49;;;;;;;15.00;13.20;;;;;;;;;;2064706;28;20232;-58
2022/04/11 03:10:49;;;;;;;15.03;13.47;;;;;;;;;;2058211;28;20210;-62
2022/04/11 03:11:50;;;;;;;18.70;13.97;;;;;;;;;;2073478;28;20227;-60
2022/04/11 03:12:50;;;;;;;16.07;14.03;;;;;;;;;;2065791;28;20693;-60
2022/04/11 03:13:51;;;;;;;13.13;11.93;;;;;;;;;;2058061;28;20174;-61
2022/04/11 03:14:52;;;;;;;15.83;13.77;;;;;;;;;;2065691;28;20162;-58
2022/04/11 03:15:53;;;;;;;18.13;13.67;;;;;;;;;;2065613;28;20227;-58
2022/04/11 03:16:55;;;;;;;16.33;13.97;;;;;;;;;;2069257;28;20657;-56
2022/04/11 03:17:55;;;;;;;15.67;13.40;;;;;;;;;;2074109;28;20201;-60
2022/04/11 03:18:56;;;;;;;19.00;14.63;;;;;;;;;;2065681;28;20161;-52
2022/04/11 03:19:56;;;;;;;18.03;16.17;;;;;;;;;;2065822;28;20742;-61
2022/04/11 03:20:56;;;;;;;18.00;14.40;;;;;;;;;;2074156;28;20252;-60
2022/04/11 03:21:58;;;;;;;18.93;13.80;;;;;;;;;;2074359;28;20194;-59
2022/04/11 03:22:58;;;;;;;17.73;13.47;;;;;;;;;;2074061;28;20197;-61
2022/04/11 03:24:01;;;;;;;15.67;14.13;;;;;;;;;;2065632;28;20654;-60
2022/04/11 03:25:02;;;;;;;15.33;13.60;;;;;;;;;;2067659;28;20218;-61
2022/04/11 03:26:02;;;;;;;17.77;15.47;;;;;;;;;;2062147;28;20674;-61
2022/04/11 03:27:06;;;;;;;14.43;13.03;;;;;;;;;;2066441;28;20216;-56
2022/04/11 03:28:09;;;;;;;16.60;14.60;;;;;;;;;;2062193;28;20181;-60
2022/04/11 03:29:11;;;;;;;14.47;12.97;;;;;;;;;;2064278;28;20265;-61
2022/04/11 03:30:12;;;;;;;13.70;12.37;;;;;;;;;;2073749;28;20181;-59
2022/04/11 03:31:13;;;;;;;15.03;13.50;;;;;;;;;;2073601;28;20179;-53
2022/04/11 03:32:14;;;;;;;15.03;13.43;;;;;;;;;;2081442;28;20175;-60
2022/04/11 03:33:14;;;;;;;14.97;13.57;;;;;;;;;;2076186;28;20201;-61
2022/04/11 03:34:14;;;;;;;15.40;12.57;;;;;;;;;;2069877;28;20591;-59
2022/04/11 03:35:15;;;;;;;15.63;12.60;;;;;;;;;;2065450;28;20235;-61
2022/04/11 03:36:15;;;;;;;15.97;13.57;;;;;;;;;;2073343;28;20165;-62
2022/04/11 03:37:16;;;;;;;14.70;13.13;;;;;;;;;;2060138;28;20179;-62
2022/04/11 03:38:25;;;;;;;15.77;14.17;;;;;;;;;;2062720;28;20173;-61
2022/04/11 03:39:27;;;;;;;15.40;13.77;;;;;;;;;;2072342;28;20173;-61
2022/04/11 03:40:27;;;;;;;15.00;13.50;;;;;;;;;;2073777;28;20669;-61
2022/04/11 03:41:30;;;;;;;15.70;13.63;;;;;;;;;;2073246;28;20169;-59
2022/04/11 03:42:41;;;;;;;14.63;13.23;;;;;;;;;;2064230;28;20240;-59
2022/04/11 03:43:41;;;;;;;14.67;12.20;;;;;;;;;;2073219;28;20513;-64
2022/04/11 03:44:42;;;;;;;18.27;13.37;;;;;;;;;;2073196;28;20181;-61
2022/04/11 03:45:48;;;;;;;15.00;13.47;;;;;;;;;;2060013;28;20185;-59
2022/04/11 03:46:51;;;;;;;15.27;13.67;;;;;;;;;;2073493;28;20181;-57
2022/04/11 03:47:56;;;;;;;13.73;12.30;;;;;;;;;;2074150;28;20200;-59
2022/04/11 03:49:00;;;;;;;14.70;13.10;;;;;;;;;;2073774;28;20276;-61
2022/04/11 03:50:00;;;;;;;14.50;12.93;;;;;;;;;;2066007;28;20201;-57
2022/04/11 03:51:07;;;;;;;15.57;13.33;;;;;;;;;;2074002;28;20172;-60
2022/04/11 03:52:07;;;;;;;14.93;13.07;;;;;;;;;;2073555;28;20181;-55
2022/04/11 03:53:08;;;;;;;13.43;12.03;;;;;;;;;;2081686;28;20299;-58
2022/04/11 03:54:12;;;;;;;14.53;12.90;;;;;;;;;;2073586;28;20177;-57
2022/04/11 03:55:12;;;;;;;17.03;13.00;;;;;;;;;;2073530;28;20678;-58
2022/04/11 03:56:17;;;;;;;14.57;13.27;;;;;;;;;;2073237;28;20754;-58
2022/04/11 03:57:18;;;;;;;14.47;13.00;;;;;;;;;;2073835;28;20441;-59
2022/04/11 03:58:21;;;;;;;14.13;12.63;;;;;;;;;;2073396;28;20231;-57
2022/04/11 03:59:24;;;;;;;14.40;12.90;;;;;;;;;;2065743;28;20178;-58
2022/04/11 04:00:24;;;;;;;14.83;12.43;;;;;;;;;;2065265;28;20308;-59
2022/04/11 04:01:53;;;;;;;16.00;12.40;;;;;;;;;;2077677;28;20149;-58
2022/04/11 04:03:03;;;;;;;16.50;12.40;;;;;;;;;;2073517;28;20243;-59
2022/04/11 04:04:04;;;;;;;13.60;12.30;;;;;;;;;;2073231;28;20184;-56
2022/04/11 04:05:05;;;;;;;13.07;11.77;;;;;;;;;;2065445;28;20269;-60
2022/04/11 04:06:06;;;;;;;14.03;11.77;;;;;;;;;;2072591;28;20191;-58
2022/04/11 04:07:14;;;;;;;13.47;12.13;;;;;;;;;;2073678;28;20177;-54
2022/04/11 04:08:17;;;;;;;14.10;12.33;;;;;;;;;;2080940;28;20184;-56
2022/04/11 04:09:24;;;;;;;14.93;11.90;;;;;;;;;;2073953;28;20267;-59
2022/04/11 04:10:26;;;;;;;13.37;11.87;;;;;;;;;;2072832;28;20634;-57
2022/04/11 04:11:26;;;;;;;14.10;11.97;;;;;;;;;;2066400;28;20181;-57
2022/04/11 04:12:41;;;;;;;13.57;12.27;;;;;;;;;;2064924;28;20272;-59
2022/04/11 04:13:48;;;;;;;13.20;11.90;;;;;;;;;;2065229;28;20752;-52
2022/04/11 04:14:49;;;;;;;12.33;11.13;;;;;;;;;;2062486;28;20228;-58
2022/04/11 04:15:49;;;;;;;15.13;11.47;;;;;;;;;;2073698;28;20177;-59
2022/04/11 04:16:50;;;;;;;14.17;11.90;;;;;;;;;;2072203;28;20657;-59
2022/04/11 04:17:54;;;;;;;13.40;12.20;;;;;;;;;;2062604;28;20208;-60
2022/04/11 04:18:55;;;;;;;13.77;12.37;;;;;;;;;;2051433;28;20190;-55
2022/04/11 04:19:56;;;;;;;15.33;12.30;;;;;;;;;;2056226;28;20185;-57
2022/04/11 04:20:57;;;;;;;13.83;12.43;;;;;;;;;;2064934;28;20217;-59
2022/04/11 04:21:58;;;;;;;14.63;13.07;;;;;;;;;;2064602;28;20197;-58
2022/04/11 04:22:58;;;;;;;16.87;12.83;;;;;;;;;;2064671;28;20701;-59
2022/04/11 04:23:58;;;;;;;14.43;12.97;;;;;;;;;;2056159;28;20186;-55
2022/04/11 04:25:01;;;;;;;13.80;12.40;;;;;;;;;;2056386;28;20226;-60
2022/04/11 04:26:02;;;;;;;14.03;12.63;;;;;;;;;;2056719;28;20181;-59
2022/04/11 04:27:03;;;;;;;13.97;12.67;;;;;;;;;;2062842;28;20186;-57
2022/04/11 04:28:05;;;;;;;14.73;13.23;;;;;;;;;;2060516;28;20567;-58
2022/04/11 04:29:08;;;;;;;15.03;13.63;;;;;;;;;;2063811;28;20196;-63
2022/04/11 04:30:13;;;;;;;17.60;13.63;;;;;;;;;;2072600;28;20165;-56
2022/04/11 04:31:15;;;;;;;15.67;13.43;;;;;;;;;;2069451;28;20781;-57
2022/04/11 04:32:15;;;;;;;15.47;13.57;;;;;;;;;;2062504;28;20346;-63
2022/04/11 04:33:18;;;;;;;14.47;13.00;;;;;;;;;;2064080;28;20220;-55
2022/04/11 04:34:22;;;;;;;17.23;14.60;;;;;;;;;;2072178;28;20193;-55
2022/04/11 04:35:25;;;;;;;15.43;13.83;;;;;;;;;;2072021;28;20177;-58
2022/04/11 04:36:26;;;;;;;16.93;14.47;;;;;;;;;;2064607;28;20178;-57
2022/04/11 04:37:27;;;;;;;16.40;14.30;;;;;;;;;;2071348;28;20256;-58
2022/04/11 04:38:28;;;;;;;16.33;14.63;;;;;;;;;;2082961;28;20176;-57
2022/04/11 04:39:29;;;;;;;15.53;13.90;;;;;;;;;;2072489;28;20180;-60
2022/04/11 04:40:30;;;;;;;19.07;15.63;;;;;;;;;;2065232;28;20221;-59
2022/04/11 04:41:31;;;;;;;16.67;15.03;;;;;;;;;;2064741;28;20177;-57
2022/04/11 04:42:31;;;;;;;17.70;15.03;;;;;;;;;;2064196;28;20221;-57
2022/04/11 04:43:39;;;;;;;16.47;14.87;;;;;;;;;;2065639;28;20189;-57
2022/04/11 04:44:40;;;;;;;18.03;14.90;;;;;;;;;;2064422;28;20188;-60
2022/04/11 04:45:40;;;;;;;16.87;15.07;;;;;;;;;;2064083;28;20178;-55
2022/04/11 04:46:55;;;;;;;17.17;15.47;;;;;;;;;;2063629;28;20677;-60
2022/04/11 04:47:59;;;;;;;19.33;15.63;;;;;;;;;;2067349;28;20182;-61
2022/04/11 04:49:01;;;;;;;18.10;16.13;;;;;;;;;;2070428;28;20228;-57
2022/04/11 04:50:02;;;;;;;18.10;15.80;;;;;;;;;;2075720;28;20268;-56
2022/04/11 04:51:04;;;;;;;16.93;15.23;;;;;;;;;;2072340;28;20180;-61
2022/04/11 04:52:08;;;;;;;19.07;15.60;;;;;;;;;;2064772;28;20708;-55
2022/04/11 04:53:17;;;;;;;17.77;16.10;;;;;;;;;;2065563;28;20209;-59
2022/04/11 04:54:20;;;;;;;16.63;14.80;;;;;;;;;;2063802;28;20176;-58
2022/04/11 04:55:20;;;;;;;17.77;15.93;;;;;;;;;;2056063;28;20182;-60
2022/04/11 04:56:20;;;;;;;17.60;15.83;;;;;;;;;;2063549;28;20205;-58
2022/04/11 04:57:21;;;;;;;18.33;16.40;;;;;;;;;;2063141;28;20328;-58
2022/04/11 04:58:22;;;;;;;17.27;15.60;;;;;;;;;;2064695;28;20264;-61
2022/04/11 04:59:24;;;;;;;17.33;15.57;;;;;;;;;;2058223;28;20178;-56
2022/04/11 05:00:25;;;;;;;18.87;16.07;;;;;;;;;;2070414;28;20188;-57
2022/04/11 05:01:25;;;;;;;18.60;16.80;;;;;;;;;;2072136;28;20189;-59
2022/04/11 05:02:26;;;;;;;18.43;16.57;;;;;;;;;;2060436;28;20492;-61
2022/04/11 05:03:26;;;;;;;19.63;15.70;;;;;;;;;;2061884;28;20597;-62
2022/04/11 05:04:27;;;;;;;18.30;16.17;;;;;;;;;;2062877;28;20193;-54
2022/04/11 05:05:29;;;;;;;18.07;16.13;;;;;;;;;;2056512;28;20205;-55
2022/04/11 05:06:33;;;;;;;17.90;16.13;;;;;;;;;;2048926;28;20189;-61
2022/04/11 05:07:34;;;;;;;18.40;16.50;;;;;;;;;;2056521;28;20400;-57
2022/04/11 05:08:34;;;;;;;17.53;15.60;;;;;;;;;;2071976;28;20504;-58
2022/04/11 05:09:35;;;;;;;17.97;16.10;;;;;;;;;;2081061;28;20194;-61
2022/04/11 05:10:36;;;;;;;17.53;15.73;;;;;;;;;;2072203;28;20188;-58
2022/04/11 05:11:36;;;;;;;18.23;16.17;;;;;;;;;;2072009;28;20185;-59
2022/04/11 05:12:41;;;;;;;17.80;15.43;;;;;;;;;;2080075;28;20211;-59
2022/04/11 05:13:42;;;;;;;18.73;15.73;;;;;;;;;;2080422;28;20204;-58
2022/04/11 05:14:43;;;;;;;17.70;15.63;;;;;;;;;;2070437;28;20600;-60
2022/04/11 05:15:47;;;;;;;19.57;15.03;;;;;;;;;;2071004;28;20255;-60
2022/04/11 05:16:53;;;;;;;17.57;14.83;;;;;;;;;;2066339;28;20158;-56
2022/04/11 05:17:57;;;;;;;15.80;14.30;;;;;;;;;;2063711;28;20177;-57
2022/04/11 05:19:00;;;;;;;15.67;14.17;;;;;;;;;;2057548;28;20182;-53
2022/04/11 05:20:02;;;;;;;15.33;13.77;;;;;;;;;;2051587;28;20285;-58
2022/04/11 05:21:03;;;;;;;15.27;13.67;;;;;;;;;;2068132;28;20264;-54
2022/04/11 05:22:06;;;;;;;17.43;13.73;;;;;;;;;;2073892;28;20268;-61
2022/04/11 05:23:08;;;;;;;14.20;12.83;;;;;;;;;;2072262;28;20239;-57
2022/04/11 05:24:11;;;;;;;14.53;12.50;;;;;;;;;;2063738;28;20169;-53
2022/04/11 05:25:11;;;;;;;14.07;12.77;;;;;;;;;;2063736;28;20170;-61
2022/04/11 05:26:12;;;;;;;13.67;12.47;;;;;;;;;;2050894;28;20208;-55
2022/04/11 05:27:12;;;;;;;15.23;12.53;;;;;;;;;;2051295;28;20189;-55
2022/04/11 05:28:13;;;;;;;14.03;12.77;;;;;;;;;;2054497;28;20249;-56
2022/04/11 05:29:19;;;;;;;15.27;13.73;;;;;;;;;;2064685;28;20179;-60
2022/04/11 05:30:20;;;;;;;12.87;11.77;;;;;;;;;;2063646;28;20265;-59
2022/04/11 05:31:21;;;;;;;13.17;11.87;;;;;;;;;;2053395;28;20627;-55
2022/04/11 05:32:23;;;;;;;13.07;11.77;;;;;;;;;;2058073;28;20158;-61
2022/04/11 05:33:23;;;;;;;15.90;11.67;;;;;;;;;;2058410;28;20285;-61
2022/04/11 05:34:24;;;;;;;12.53;11.30;;;;;;;;;;2060396;28;20194;-62
2022/04/11 05:35:24;;;;;;;12.47;11.27;;;;;;;;;;2060561;28;20170;-59
2022/04/11 05:36:25;;;;;;;12.63;11.43;;;;;;;;;;2065067;28;20257;-61
2022/04/11 05:37:25;;;;;;;12.10;11.10;;;;;;;;;;2057927;28;20174;-58
2022/04/11 05:38:26;;;;;;;12.03;10.70;;;;;;;;;;2065964;28;20853;-59
2022/04/11 05:39:30;;;;;;;14.57;12.73;;;;;;;;;;2073553;28;20200;-58
2022/04/11 05:40:30;;;;;;;13.47;12.07;;;;;;;;;;2069090;28;20218;-57
2022/04/11 05:41:32;;;;;;;12.73;11.43;;;;;;;;;;2064490;28;20176;-52
2022/04/11 05:42:34;;;;;;;12.53;11.43;;;;;;;;;;2066297;28;20278;-58
2022/04/11 05:43:35;;;;;;;12.93;10.67;;;;;;;;;;2064211;28;20173;-55
2022/04/11 05:44:35;;;;;;;11.87;10.67;;;;;;;;;;2055498;28;20174;-57
2022/04/11 05:45:35;;;;;;;12.43;11.10;;;;;;;;;;2063779;28;20227;-54
2022/04/11 05:46:36;;;;;;;11.60;10.47;;;;;;;;;;2069583;28;20178;-54
2022/04/11 05:47:44;;;;;;;13.17;11.93;;;;;;;;;;2064374;28;20279;-61
2022/04/11 05:48:47;;;;;;;11.50;10.37;;;;;;;;;;2071866;28;20531;-55
2022/04/11 05:49:48;;;;;;;11.80;10.60;;;;;;;;;;2074015;28;20204;-54
2022/04/11 05:50:48;;;;;;;11.47;10.47;;;;;;;;;;2077809;28;20639;-52
2022/04/11 05:51:48;;;;;;;11.37;10.30;;;;;;;;;;2081457;28;20210;-54
2022/04/11 05:52:49;;;;;;;11.40;10.33;;;;;;;;;;2065869;28;20291;-54
2022/04/11 05:53:49;;;;;;;11.73;10.50;;;;;;;;;;2071385;28;20193;-56
2022/04/11 05:54:49;;;;;;;10.97;9.97;;;;;;;;;;2055556;28;20222;-56
2022/04/11 05:55:50;;;;;;;11.50;10.40;;;;;;;;;;2071500;28;20192;-55
2022/04/11 05:56:50;;;;;;;11.27;10.13;;;;;;;;;;2080788;28;20255;-55
2022/04/11 05:57:51;;;;;;;11.30;9.47;;;;;;;;;;2080504;28;20559;-59
2022/04/11 05:58:51;;;;;;;11.63;10.00;;;;;;;;;;2071490;28;20635;-62
2022/04/11 05:59:52;;;;;;;10.20;9.30;;;;;;;;;;2071621;28;20269;-59
2022/04/11 06:00:52;;;;;;;10.37;9.37;;;;;;;;;;2077293;28;20526;-61